Time;durP1;ratioP1;P1;durP2;ratioP2;P2;SDS_P1;SDS_P2;PMS_P1;PMS_P2;Temp;Humidity;BMP_temperature;BMP_pressure;BME280_temperature;BME280_humidity;BME280_pressure;Samples;Min_cycle;Max_cycle;Signal;HPM_P1;HPM_P2
2022/05/14 00:01:23;;;;;;;22.70;5.25;;;12.60;99.90;;;;;;5135566;27;20043;-80
2022/05/14 00:03:50;;;;;;;17.75;4.72;;;12.50;99.90;;;;;;5084154;27;20537;-81
2022/05/14 00:06:18;;;;;;;22.40;5.50;;;12.50;99.90;;;;;;5135338;27;20065;-81
2022/05/14 00:08:46;;;;;;;34.22;6.63;;;12.60;99.90;;;;;;5137948;27;20031;-80
2022/05/14 00:13:56;;;;;;;23.27;5.57;;;12.50;99.90;;;;;;5135119;27;20062;-80
2022/05/14 00:16:23;;;;;;;22.08;4.93;;;12.50;99.90;;;;;;5136035;27;20035;-81
2022/05/14 00:18:51;;;;;;;26.10;5.20;;;12.50;99.90;;;;;;5116707;27;20485;-80
2022/05/14 00:21:22;;;;;;;22.02;5.22;;;12.50;99.90;;;;;;5117853;27;20062;-81
2022/05/14 00:23:47;;;;;;;26.40;5.88;;;12.50;99.90;;;;;;5142806;27;20045;-81
2022/05/14 00:26:14;;;;;;;21.60;5.60;;;12.40;99.90;;;;;;5155788;27;20046;-80
2022/05/14 00:28:40;;;;;;;24.98;6.18;;;12.40;99.90;;;;;;5126976;27;20482;-81
2022/05/14 00:31:06;;;;;;;21.10;5.35;;;12.40;99.90;;;;;;5134412;27;20045;-81
2022/05/14 00:33:32;;;;;;;24.92;5.28;;;12.40;99.90;;;;;;5134906;27;20078;-81
2022/05/14 00:35:58;;;;;;;23.10;5.22;;;12.40;99.90;;;;;;5134826;27;20082;-81
2022/05/14 00:38:24;;;;;;;23.80;6.03;;;12.40;99.90;;;;;;5135587;27;20067;-81
2022/05/14 00:41:03;;;;;;;17.58;5.70;;;12.30;99.90;;;;;;5134668;27;20497;-81
2022/05/14 00:43:30;;;;;;;23.40;5.90;;;12.30;99.90;;;;;;5135314;27;20043;-81
2022/05/14 00:46:10;;;;;;;29.08;5.97;;;12.20;99.90;;;;;;5135220;27;20049;-81
2022/05/14 00:48:39;;;;;;;26.98;6.97;;;12.20;99.90;;;;;;5134581;27;20051;-81
2022/05/14 00:51:06;;;;;;;20.77;6.00;;;12.20;99.90;;;;;;5116400;27;20097;-81
2022/05/14 00:53:37;;;;;;;28.95;6.28;;;12.10;99.90;;;;;;5154392;27;20404;-81
2022/05/14 00:56:09;;;;;;;31.05;6.40;;;12.10;99.90;;;;;;5155805;27;20039;-81
2022/05/14 00:58:41;;;;;;;23.73;5.97;;;12.10;99.90;;;;;;5135240;27;20059;-81
2022/05/14 01:01:07;;;;;;;26.75;7.40;;;12.10;99.90;;;;;;5134565;27;20035;-81
2022/05/14 01:03:33;;;;;;;31.25;6.47;;;12.10;99.90;;;;;;5134473;27;20578;-81
2022/05/14 01:06:03;;;;;;;34.30;6.53;;;12.10;99.90;;;;;;5135063;27;20049;-81
2022/05/14 01:08:31;;;;;;;26.70;6.93;;;12.10;99.90;;;;;;5097905;27;20050;-81
2022/05/14 01:10:58;;;;;;;26.67;6.30;;;12.10;99.90;;;;;;5116567;27;20455;-81
2022/05/14 01:13:25;;;;;;;37.38;6.80;;;12.10;99.90;;;;;;5134254;27;20043;-81
2022/05/14 01:15:56;;;;;;;28.85;6.07;;;12.10;99.90;;;;;;5115846;27;20085;-81
2022/05/14 01:18:24;;;;;;;28.23;6.88;;;12.10;99.90;;;;;;5115758;27;20046;-81
2022/05/14 01:21:04;;;;;;;33.65;7.28;;;12.10;99.90;;;;;;5115873;27;20042;-81
2022/05/14 01:26:36;;;;;;;27.77;6.72;;;12.10;99.90;;;;;;5134230;27;20100;-81
2022/05/14 01:29:11;;;;;;;33.30;7.00;;;12.10;99.90;;;;;;5134001;27;20072;-81
2022/05/14 01:31:38;;;;;;;31.42;6.55;;;12.10;99.90;;;;;;5134076;27;20039;-81
2022/05/14 01:34:07;;;;;;;25.35;7.35;;;12.00;99.90;;;;;;5134643;27;20103;-81
2022/05/14 01:36:34;;;;;;;25.42;6.50;;;12.10;99.90;;;;;;5115375;27;20034;-81
2022/05/14 01:39:00;;;;;;;36.92;8.05;;;12.00;99.90;;;;;;5115962;27;20080;-81
2022/05/14 01:41:26;;;;;;;28.88;7.05;;;12.00;99.90;;;;;;5137128;27;20031;-81
2022/05/14 01:43:54;;;;;;;30.08;7.32;;;12.00;99.90;;;;;;5136483;27;20046;-81
2022/05/14 01:46:20;;;;;;;31.40;7.00;;;11.90;99.90;;;;;;5147363;27;20042;-81
2022/05/14 01:48:46;;;;;;;41.60;8.27;;;11.90;99.90;;;;;;5134298;27;20045;-81
2022/05/14 01:51:13;;;;;;;23.75;6.95;;;11.80;99.90;;;;;;5114873;28;20039;-81
2022/05/14 01:53:38;;;;;;;31.35;6.28;;;11.80;99.90;;;;;;5134030;28;20494;-81
2022/05/14 01:56:04;;;;;;;46.92;9.52;;;11.80;99.90;;;;;;5134564;27;20062;-81
2022/05/14 01:58:39;;;;;;;39.95;8.02;;;11.80;99.90;;;;;;5133573;28;20046;-81
2022/05/14 02:01:08;;;;;;;36.53;7.30;;;11.80;99.90;;;;;;5134133;27;20051;-81
2022/05/14 02:03:34;;;;;;;37.55;7.30;;;11.70;99.90;;;;;;5134267;28;20054;-81
2022/05/14 02:06:00;;;;;;;39.05;7.53;;;11.70;99.90;;;;;;5133285;27;20043;-81
2022/05/14 02:08:25;;;;;;;34.15;8.13;;;11.60;99.90;;;;;;5134359;28;20050;-81
2022/05/14 02:10:51;;;;;;;32.45;8.00;;;11.60;99.90;;;;;;5115028;27;20055;-81
2022/05/14 02:13:17;;;;;;;31.58;7.75;;;11.60;99.90;;;;;;5133911;28;20431;-81
2022/05/14 02:15:43;;;;;;;32.60;8.30;;;11.60;99.90;;;;;;5133805;27;20047;-81
2022/05/14 02:18:09;;;;;;;32.40;8.80;;;11.50;99.90;;;;;;5136692;27;20042;-81
2022/05/14 02:20:35;;;;;;;33.05;7.72;;;11.50;99.90;;;;;;5141175;27;20051;-81
2022/05/14 02:23:04;;;;;;;32.85;7.90;;;11.50;99.90;;;;;;5133973;28;20038;-81
2022/05/14 02:25:29;;;;;;;43.55;8.55;;;11.50;99.90;;;;;;5098153;28;20386;-81
2022/05/14 02:27:55;;;;;;;33.42;8.57;;;11.40;99.90;;;;;;5133902;28;20042;-81
2022/05/14 02:30:21;;;;;;;40.58;9.45;;;11.40;99.90;;;;;;5115387;28;20031;-81
2022/05/14 02:32:47;;;;;;;41.40;9.07;;;11.30;99.90;;;;;;5133454;28;20113;-81
2022/05/14 02:35:13;;;;;;;38.75;9.90;;;11.30;99.90;;;;;;5133268;27;20046;-81
2022/05/14 02:37:39;;;;;;;40.92;9.07;;;11.30;99.90;;;;;;5115768;28;20040;-81
2022/05/14 02:40:05;;;;;;;36.38;8.85;;;11.30;99.90;;;;;;5132977;27;20125;-81
2022/05/14 02:42:31;;;;;;;42.10;9.20;;;11.30;99.90;;;;;;5133781;28;20043;-81
2022/05/14 02:44:57;;;;;;;35.63;8.65;;;11.20;99.90;;;;;;5114892;28;20402;-81
2022/05/14 02:47:23;;;;;;;41.10;9.55;;;11.20;99.90;;;;;;5133170;28;20046;-81
2022/05/14 02:49:49;;;;;;;38.40;8.77;;;11.20;99.90;;;;;;5133382;27;20049;-81
2022/05/14 02:52:15;;;;;;;46.28;9.98;;;11.20;99.90;;;;;;5136336;27;20047;-81
2022/05/14 02:54:41;;;;;;;46.70;10.68;;;11.20;99.90;;;;;;5117734;27;20050;-81
2022/05/14 02:57:07;;;;;;;37.40;8.50;;;11.20;99.90;;;;;;5137366;27;20039;-81
2022/05/14 02:59:33;;;;;;;44.42;8.93;;;11.10;99.90;;;;;;5118561;27;20126;-81
2022/05/14 03:01:59;;;;;;;38.25;9.68;;;11.10;99.90;;;;;;5135859;27;20122;-81
2022/05/14 03:04:28;;;;;;;40.65;9.23;;;11.10;99.90;;;;;;5136882;27;20043;-81
2022/05/14 03:06:56;;;;;;;43.63;9.48;;;11.10;99.90;;;;;;5118594;27;20500;-81
2022/05/14 03:09:22;;;;;;;36.58;8.90;;;11.00;99.90;;;;;;5136355;27;20073;-81
2022/05/14 03:11:48;;;;;;;38.58;9.90;;;11.00;99.90;;;;;;5101957;27;20092;-81
2022/05/14 03:14:15;;;;;;;41.45;10.32;;;11.00;99.90;;;;;;5135950;27;20414;-81
2022/05/14 03:16:42;;;;;;;48.00;11.52;;;11.00;99.90;;;;;;5157427;27;20084;-81
2022/05/14 03:19:08;;;;;;;51.47;13.68;;;11.00;99.90;;;;;;5157637;27;20039;-81
2022/05/14 03:21:36;;;;;;;49.83;11.10;;;11.00;99.90;;;;;;5136298;27;20043;-81
2022/05/14 03:24:02;;;;;;;54.83;11.50;;;10.90;99.90;;;;;;5136546;27;20055;-81
2022/05/14 03:26:27;;;;;;;54.97;11.73;;;10.90;99.90;;;;;;5136285;27;20122;-81
2022/05/14 03:28:53;;;;;;;48.33;11.75;;;10.90;99.90;;;;;;5136310;27;20043;-81
2022/05/14 03:31:19;;;;;;;38.35;11.00;;;10.90;99.90;;;;;;5136095;27;20039;-81
2022/05/14 03:33:45;;;;;;;40.53;10.73;;;10.80;99.90;;;;;;5118213;27;20055;-81
2022/05/14 03:36:11;;;;;;;54.28;12.10;;;10.80;99.90;;;;;;5136245;27;20403;-81
2022/05/14 03:38:38;;;;;;;51.75;12.25;;;10.80;99.90;;;;;;5117948;27;20492;-81
2022/05/14 03:41:05;;;;;;;53.35;11.90;;;10.80;99.90;;;;;;5136238;27;20050;-81
2022/05/14 03:43:31;;;;;;;56.40;12.70;;;10.80;99.90;;;;;;5136030;27;20055;-81
2022/05/14 03:45:58;;;;;;;38.95;10.30;;;10.80;99.90;;;;;;5136094;27;20035;-81
2022/05/14 03:48:24;;;;;;;47.97;10.80;;;10.80;99.90;;;;;;5136588;27;20091;-81
2022/05/14 03:50:50;;;;;;;60.10;12.95;;;10.80;99.90;;;;;;5135006;27;20049;-81
2022/05/14 03:53:17;;;;;;;47.70;10.70;;;10.80;99.90;;;;;;5136188;27;20401;-81
2022/05/14 03:55:42;;;;;;;46.03;9.27;;;10.80;99.90;;;;;;5136056;27;20113;-81
2022/05/14 03:58:08;;;;;;;38.55;10.93;;;10.80;99.90;;;;;;5116494;27;20481;-82
2022/05/14 04:00:34;;;;;;;33.30;9.90;;;10.80;99.90;;;;;;5129233;27;20041;-82
2022/05/14 04:03:00;;;;;;;49.30;12.25;;;10.80;99.90;;;;;;5137413;27;20049;-82
2022/05/14 04:05:25;;;;;;;48.03;11.05;;;10.80;99.90;;;;;;5140220;27;20054;-82
2022/05/14 04:07:51;;;;;;;48.25;10.90;;;10.80;99.90;;;;;;5135252;27;20065;-81
2022/05/14 04:10:17;;;;;;;54.58;11.93;;;10.80;99.90;;;;;;5135373;27;20377;-81
2022/05/14 04:12:43;;;;;;;56.20;11.93;;;10.80;99.90;;;;;;5135902;27;20074;-82
2022/05/14 04:15:10;;;;;;;47.33;11.65;;;10.80;99.90;;;;;;5135497;27;20129;-82
2022/05/14 04:17:36;;;;;;;53.78;11.98;;;10.90;99.90;;;;;;5135319;27;20046;-82
2022/05/14 04:20:03;;;;;;;52.78;11.60;;;10.90;99.90;;;;;;5116652;27;20417;-81
2022/05/14 04:22:29;;;;;;;50.00;10.55;;;10.90;99.90;;;;;;5117305;27;20043;-81
2022/05/14 04:24:55;;;;;;;43.10;10.30;;;10.90;99.90;;;;;;5134731;27;20103;-81
2022/05/14 04:27:21;;;;;;;48.72;10.10;;;11.00;99.90;;;;;;5135489;27;20031;-81
2022/05/14 04:29:47;;;;;;;44.35;10.63;;;11.00;99.90;;;;;;5136715;27;20401;-82
2022/05/14 04:32:17;;;;;;;59.95;12.30;;;11.00;99.90;;;;;;5135060;27;20053;-82
2022/05/14 04:34:43;;;;;;;39.47;10.73;;;11.00;99.90;;;;;;5134946;27;20046;-81
2022/05/14 04:37:09;;;;;;;51.28;12.82;;;11.00;99.90;;;;;;5135583;27;20394;-81
2022/05/14 04:39:35;;;;;;;41.60;11.10;;;11.10;99.90;;;;;;5134294;27;20039;-82
2022/05/14 04:42:03;;;;;;;53.47;11.98;;;11.10;99.90;;;;;;5135484;27;20466;-81
2022/05/14 04:44:30;;;;;;;50.10;11.00;;;11.10;99.90;;;;;;5116440;27;20066;-81
2022/05/14 04:46:56;;;;;;;55.92;11.27;;;11.10;99.90;;;;;;5134414;27;20055;-81
2022/05/14 04:49:22;;;;;;;48.55;10.52;;;11.10;99.90;;;;;;5134573;27;20039;-81
2022/05/14 04:51:48;;;;;;;50.53;10.85;;;11.20;99.90;;;;;;5135121;27;20082;-81
2022/05/14 04:54:15;;;;;;;48.53;9.98;;;11.20;99.90;;;;;;5111773;27;20086;-81
2022/05/14 04:56:42;;;;;;;47.30;10.52;;;11.30;99.90;;;;;;5114583;28;20048;-81
2022/05/14 04:59:08;;;;;;;42.05;8.65;;;11.30;99.90;;;;;;5114194;28;20453;-81
2022/05/14 05:03:16;;;;;;;47.05;9.85;;;11.40;99.90;;;;;;5113415;28;20540;-81
2022/05/14 05:04:31;;;;;;;56.30;13.27;;;11.40;99.90;;;;;;5115056;27;20078;-82
2022/05/14 05:06:57;;;;;;;50.78;11.55;;;11.40;99.90;;;;;;5113926;28;20028;-82
2022/05/14 05:09:23;;;;;;;59.00;11.38;;;11.50;99.90;;;;;;5112468;27;20124;-81
2022/05/14 05:11:50;;;;;;;49.80;12.05;;;11.50;99.90;;;;;;5112927;28;20069;-81
2022/05/14 05:14:17;;;;;;;47.10;10.68;;;11.50;99.90;;;;;;5113068;27;20086;-81
2022/05/14 05:16:42;;;;;;;42.05;10.02;;;11.60;99.90;;;;;;5113892;28;20039;-81
2022/05/14 05:19:14;;;;;;;43.67;10.27;;;11.60;99.90;;;;;;5113864;27;20184;-81
2022/05/14 05:21:39;;;;;;;42.45;9.90;;;11.60;99.90;;;;;;5113394;28;20043;-81
2022/05/14 05:24:06;;;;;;;45.60;10.13;;;11.60;99.90;;;;;;5113528;28;20039;-81
2022/05/14 05:26:35;;;;;;;43.95;10.98;;;11.60;99.90;;;;;;5113250;28;20044;-81
2022/05/14 05:29:04;;;;;;;51.85;10.40;;;11.60;99.90;;;;;;5112877;28;20079;-81
2022/05/14 05:31:31;;;;;;;46.25;10.82;;;11.60;99.90;;;;;;5113953;28;20498;-81
2022/05/14 05:33:58;;;;;;;43.78;10.13;;;11.70;99.90;;;;;;5113366;28;20035;-82
2022/05/14 05:36:24;;;;;;;47.50;11.48;;;11.80;99.90;;;;;;5113228;28;20040;-82
2022/05/14 05:38:51;;;;;;;40.92;9.55;;;11.80;99.90;;;;;;5113438;28;20036;-82
2022/05/14 05:41:18;;;;;;;40.20;9.95;;;11.90;99.90;;;;;;5125175;27;20047;-81
2022/05/14 05:43:44;;;;;;;44.42;10.38;;;11.90;99.90;;;;;;5127534;27;20119;-81
2022/05/14 05:46:11;;;;;;;46.85;10.25;;;12.00;99.90;;;;;;5114077;28;20040;-81
2022/05/14 05:48:38;;;;;;;49.78;10.65;;;12.10;99.90;;;;;;5113261;28;20035;-81
2022/05/14 05:51:04;;;;;;;36.22;9.63;;;12.30;99.90;;;;;;5113005;28;20044;-81
2022/05/14 05:59:10;;;;;;;40.50;10.10;;;12.40;99.90;;;;;;5112485;28;20382;-81
2022/05/14 06:01:35;;;;;;;40.53;9.23;;;12.40;99.90;;;;;;5113756;28;20046;-81
2022/05/14 06:04:01;;;;;;;45.53;9.43;;;12.40;99.90;;;;;;5112329;28;20133;-82
2022/05/14 06:06:27;;;;;;;31.27;7.78;;;12.40;99.90;;;;;;5112369;28;20131;-81
2022/05/14 06:08:54;;;;;;;32.50;8.38;;;11.90;99.90;;;;;;5112295;28;20114;-81
2022/05/14 06:11:20;;;;;;;37.05;8.48;;;12.60;99.90;;;;;;5112798;28;20130;-81
2022/05/14 06:13:45;;;;;;;25.70;6.40;;;12.70;99.90;;;;;;5113143;28;20489;-81
2022/05/14 06:16:13;;;;;;;28.80;8.18;;;12.80;99.90;;;;;;5113584;28;20052;-81
2022/05/14 06:18:42;;;;;;;40.28;8.43;;;12.90;99.90;;;;;;5112266;28;20075;-82
2022/05/14 06:21:09;;;;;;;40.72;9.05;;;13.10;99.90;;;;;;5112956;28;20047;-83
2022/05/14 06:23:35;;;;;;;38.88;8.75;;;13.30;99.90;;;;;;5113137;28;20052;-82
2022/05/14 06:26:00;;;;;;;29.35;6.63;;;13.40;99.90;;;;;;5132473;27;20046;-82
2022/05/14 06:28:26;;;;;;;32.13;7.18;;;13.50;99.90;;;;;;5136854;27;20387;-81
2022/05/14 06:30:52;;;;;;;38.75;9.05;;;13.60;99.90;;;;;;5117475;27;20040;-82
2022/05/14 06:33:19;;;;;;;36.40;7.93;;;13.70;99.90;;;;;;5116476;27;20048;-81
2022/05/14 06:35:46;;;;;;;30.88;6.20;;;13.90;99.90;;;;;;5117489;28;20051;-81
2022/05/14 06:38:13;;;;;;;31.15;6.97;;;14.00;99.90;;;;;;5116426;27;20051;-80
2022/05/14 06:40:40;;;;;;;27.10;6.22;;;14.10;99.90;;;;;;5117028;28;20039;-80
2022/05/14 06:43:08;;;;;;;28.52;6.43;;;14.20;99.90;;;;;;5125870;27;20451;-81
2022/05/14 06:45:34;;;;;;;32.13;7.45;;;14.30;99.90;;;;;;5135983;27;20083;-81
2022/05/14 06:48:00;;;;;;;26.25;6.03;;;14.30;99.90;;;;;;5133728;27;20439;-82
2022/05/14 06:50:29;;;;;;;27.13;5.90;;;14.40;99.90;;;;;;5137735;27;20180;-81
2022/05/14 06:52:59;;;;;;;28.30;6.97;;;14.50;99.90;;;;;;5114810;27;20047;-81
2022/05/14 06:55:28;;;;;;;29.00;5.95;;;14.60;99.90;;;;;;5119066;27;20504;-81
2022/05/14 06:57:54;;;;;;;29.45;6.93;;;14.70;99.90;;;;;;5112306;27;20189;-80
2022/05/14 07:00:21;;;;;;;32.47;6.05;;;14.70;99.90;;;;;;5136508;27;20046;-81
2022/05/14 07:02:47;;;;;;;26.33;5.93;;;14.70;99.90;;;;;;5136559;27;20047;-82
2022/05/14 07:08:01;;;;;;;26.58;6.85;;;14.70;99.90;;;;;;5136961;27;20127;-81
2022/05/14 07:10:27;;;;;;;21.42;5.10;;;14.80;99.90;;;;;;5137263;27;20122;-81
2022/05/14 07:12:55;;;;;;;28.73;6.10;;;14.90;99.90;;;;;;5136597;27;20039;-81
2022/05/14 07:15:20;;;;;;;28.38;6.68;;;14.90;99.90;;;;;;5101187;27;20054;-81
2022/05/14 07:17:46;;;;;;;33.13;5.60;;;15.00;99.90;;;;;;5118277;27;20502;-81
2022/05/14 07:20:12;;;;;;;21.85;5.78;;;15.10;99.90;;;;;;5118353;27;20043;-80
2022/05/14 07:22:38;;;;;;;30.85;6.43;;;15.20;99.90;;;;;;5145343;27;20127;-80
2022/05/14 07:25:05;;;;;;;27.58;5.70;;;15.30;99.90;;;;;;5138242;27;20129;-80
2022/05/14 07:27:30;;;;;;;28.38;5.30;;;15.30;99.90;;;;;;5142172;27;20027;-80
2022/05/14 07:29:57;;;;;;;22.45;4.93;;;15.40;99.90;;;;;;5136676;27;20382;-81
2022/05/14 07:32:22;;;;;;;19.35;4.68;;;15.50;99.90;;;;;;5136474;27;20043;-81
2022/05/14 07:34:48;;;;;;;26.08;5.32;;;15.50;99.90;;;;;;5117797;27;20387;-81
2022/05/14 07:37:18;;;;;;;26.60;6.45;;;15.60;99.90;;;;;;5135669;27;20491;-80
2022/05/14 07:39:59;;;;;;;19.13;4.75;;;15.70;99.90;;;;;;5147799;27;20127;-80
2022/05/14 07:42:53;;;;;;;24.17;5.43;;;15.70;99.90;;;;;;5130845;27;20047;-80
2022/05/14 07:45:25;;;;;;;22.48;5.85;;;15.70;99.90;;;;;;5136225;27;20089;-80
2022/05/14 07:47:53;;;;;;;25.58;5.50;;;15.70;99.90;;;;;;5136664;27;20064;-80
2022/05/14 07:50:19;;;;;;;27.73;5.85;;;15.70;99.90;;;;;;5116400;27;20511;-80
2022/05/14 07:52:45;;;;;;;25.55;5.50;;;15.80;99.90;;;;;;5117775;27;20051;-81
2022/05/14 07:55:11;;;;;;;19.95;4.63;;;15.90;99.90;;;;;;5111643;28;20055;-80
2022/05/14 07:57:37;;;;;;;22.60;5.32;;;15.90;99.90;;;;;;5114591;27;20047;-80
2022/05/14 08:00:05;;;;;;;26.05;6.72;;;15.90;99.90;;;;;;5129389;27;20039;-80
2022/05/14 08:02:34;;;;;;;26.83;6.30;;;16.00;99.90;;;;;;5102426;28;20048;-80
2022/05/14 08:05:10;;;;;;;26.08;6.22;;;16.00;99.90;;;;;;5131133;27;20470;-81
2022/05/14 08:07:37;;;;;;;24.73;5.03;;;16.10;99.90;;;;;;5113579;27;20035;-81
2022/05/14 08:10:04;;;;;;;27.73;5.05;;;16.10;99.90;;;;;;5096354;28;20054;-80
2022/05/14 08:12:40;;;;;;;41.78;6.68;;;16.10;99.90;;;;;;5115103;27;20110;-81
2022/05/14 08:15:13;;;;;;;25.30;6.47;;;16.10;99.90;;;;;;5115477;28;20048;-80
2022/05/14 08:17:39;;;;;;;26.77;5.82;;;16.10;99.90;;;;;;5113045;28;20066;-82
2022/05/14 08:20:06;;;;;;;23.30;6.13;;;16.10;99.90;;;;;;5097556;28;20063;-82
2022/05/14 08:25:16;;;;;;;22.10;5.30;;;16.20;99.90;;;;;;5115177;27;20059;-83
2022/05/14 08:27:45;;;;;;;24.88;6.25;;;16.20;99.90;;;;;;5135626;27;20300;-82
2022/05/14 08:30:37;;;;;;;30.98;6.00;;;16.40;99.90;;;;;;5123775;27;20043;-80
2022/05/14 08:33:05;;;;;;;23.60;5.78;;;16.50;99.90;;;;;;5124735;27;20090;-81
2022/05/14 08:35:31;;;;;;;28.90;7.65;;;16.50;99.90;;;;;;5116367;27;20054;-81
2022/05/14 08:37:57;;;;;;;30.98;7.07;;;16.50;99.90;;;;;;5122939;27;20073;-81
2022/05/14 08:40:37;;;;;;;21.67;6.03;;;16.50;99.90;;;;;;5133975;27;20582;-81
2022/05/14 08:43:15;;;;;;;23.08;5.18;;;16.60;99.90;;;;;;5096204;28;20043;-81
2022/05/14 08:45:41;;;;;;;28.05;6.13;;;16.70;99.90;;;;;;5101974;28;20105;-81
2022/05/14 08:48:15;;;;;;;26.27;5.68;;;16.60;99.90;;;;;;5108579;27;20068;-83
2022/05/14 08:50:42;;;;;;;23.90;6.22;;;16.70;99.90;;;;;;5123528;27;20138;-81
2022/05/14 08:53:16;;;;;;;24.42;5.53;;;16.70;99.90;;;;;;5113934;28;20058;-80
2022/05/14 08:56:11;;;;;;;24.60;6.13;;;16.90;99.90;;;;;;5112985;28;20048;-82
2022/05/14 08:59:12;;;;;;;28.67;6.32;;;17.00;99.90;;;;;;5114143;28;20756;-78
2022/05/14 09:01:41;;;;;;;24.63;5.15;;;17.10;99.90;;;;;;5089675;28;20052;-79
2022/05/14 09:04:09;;;;;;;28.52;5.75;;;16.90;99.90;;;;;;5113479;28;20124;-80
2022/05/14 09:06:37;;;;;;;25.27;5.80;;;16.80;99.90;;;;;;5111889;28;20112;-79
2022/05/14 09:09:03;;;;;;;25.25;5.72;;;16.80;99.90;;;;;;5114423;27;20043;-82
2022/05/14 09:11:42;;;;;;;26.33;5.32;;;16.80;99.90;;;;;;5114508;27;20043;-82
2022/05/14 09:14:25;;;;;;;25.88;4.97;;;17.00;99.90;;;;;;5113236;28;20048;-85
2022/05/14 09:17:20;;;;;;;19.85;5.28;;;17.20;99.90;;;;;;5114241;28;20479;-82
2022/05/14 09:19:47;;;;;;;23.10;5.38;;;17.20;99.90;;;;;;5111976;28;20050;-84
2022/05/14 09:22:23;;;;;;;27.17;6.55;;;17.20;99.90;;;;;;5114094;28;20043;-83
2022/05/14 09:24:54;;;;;;;21.42;5.68;;;17.30;99.90;;;;;;5113691;28;20039;-82
2022/05/14 09:27:25;;;;;;;29.15;5.43;;;17.30;99.90;;;;;;5112820;27;20039;-83
2022/05/14 09:29:55;;;;;;;35.17;6.75;;;17.40;99.90;;;;;;5112980;28;20498;-83
2022/05/14 09:32:21;;;;;;;28.05;6.32;;;17.50;99.90;;;;;;5113698;28;20043;-82
2022/05/14 09:34:48;;;;;;;26.23;5.47;;;17.60;99.90;;;;;;5113366;28;20040;-83
2022/05/14 09:37:18;;;;;;;27.15;6.70;;;17.70;99.90;;;;;;5112189;28;20047;-82
2022/05/14 09:39:57;;;;;;;21.95;5.40;;;17.80;99.90;;;;;;5113494;28;20047;-83
2022/05/14 09:42:47;;;;;;;21.55;5.55;;;17.90;99.90;;;;;;5112675;27;20040;-81
2022/05/14 09:45:24;;;;;;;25.02;5.32;;;17.90;99.90;;;;;;5111953;28;20513;-87
2022/05/14 09:47:51;;;;;;;25.10;6.25;;;17.80;99.90;;;;;;5111705;28;20131;-83
2022/05/14 09:50:56;;;;;;;23.08;5.80;;;17.60;99.90;;;;;;5112477;28;20077;-83
2022/05/14 09:53:30;;;;;;;;;;;17.60;99.90;;;;;;5114624;27;20388;-82
2022/05/14 09:56:21;;;;;;;31.73;7.28;;;17.70;99.90;;;;;;5115018;28;19919;-83
2022/05/14 09:59:28;;;;;;;20.77;4.72;;;18.00;99.90;;;;;;5115560;28;20126;-82
2022/05/14 10:02:15;;;;;;;26.98;5.10;;;18.10;99.90;;;;;;5117527;27;20047;-84
2022/05/14 10:05:02;;;;;;;19.88;5.63;;;18.00;99.90;;;;;;5102653;27;20043;-82
2022/05/14 10:08:01;;;;;;;31.42;6.32;;;17.80;99.90;;;;;;5119704;27;20497;-85
2022/05/14 10:10:40;;;;;;;25.60;5.38;;;17.60;99.90;;;;;;5118825;27;20494;-83
2022/05/14 10:13:12;;;;;;;23.08;6.75;;;17.60;99.90;;;;;;5119966;27;20047;-83
2022/05/14 10:15:45;;;;;;;21.95;5.53;;;17.70;99.90;;;;;;5119840;27;20061;-83
2022/05/14 10:18:46;;;;;;;21.95;5.07;;;17.70;99.90;;;;;;5118890;27;20050;-83
2022/05/14 10:21:37;;;;;;;23.73;5.93;;;17.70;99.90;;;;;;5141651;27;20095;-82
2022/05/14 10:27:57;;;;;;;21.63;6.13;;;17.90;99.90;;;;;;5129932;27;20054;-80
2022/05/14 10:30:28;;;;;;;23.05;5.82;;;17.90;99.90;;;;;;5101467;27;20502;-80
2022/05/14 10:33:03;;;;;;;26.13;5.45;;;17.90;99.90;;;;;;5119680;27;20558;-83
2022/05/14 10:35:54;;;;;;;27.02;5.88;;;17.90;99.90;;;;;;5138035;27;20046;-83
2022/05/14 10:38:30;;;;;;;30.38;8.00;;;17.90;99.90;;;;;;5136630;27;20039;-81
2022/05/14 10:41:01;;;;;;;24.17;5.50;;;18.10;99.90;;;;;;5149806;27;20042;-81
2022/05/14 10:44:04;;;;;;;30.17;5.90;;;18.20;99.90;;;;;;5149579;27;20494;-82
2022/05/14 10:46:34;;;;;;;24.48;5.70;;;18.40;99.90;;;;;;5035906;27;20055;-79
2022/05/14 10:49:18;;;;;;;20.35;5.55;;;18.50;99.90;;;;;;5136697;27;20046;-82
2022/05/14 10:51:48;;;;;;;23.00;5.20;;;18.60;99.90;;;;;;5136674;27;20049;-81
2022/05/14 10:54:18;;;;;;;25.08;5.20;;;18.50;99.90;;;;;;5152754;27;20054;-81
2022/05/14 10:56:59;;;;;;;31.77;7.82;;;18.50;99.90;;;;;;5113844;27;20095;-80
2022/05/14 10:59:40;;;;;;;27.35;5.63;;;18.50;99.90;;;;;;5147348;27;20039;-81
2022/05/14 11:02:28;;;;;;;23.65;5.68;;;18.50;99.90;;;;;;5149431;27;20042;-81
2022/05/14 11:04:54;;;;;;;22.02;5.43;;;18.70;99.90;;;;;;5127770;27;20039;-80
2022/05/14 11:07:42;;;;;;;24.27;6.13;;;18.80;99.90;;;;;;5117744;27;20051;-81
2022/05/14 11:10:27;;;;;;;45.10;6.68;;;18.90;99.90;;;;;;5113354;27;20064;-81
2022/05/14 11:12:53;;;;;;;;;;;19.00;99.90;;;;;;5130302;27;20452;-81
2022/05/14 11:15:27;;;;;;;23.17;4.68;;;19.00;99.90;;;;;;5118658;27;20002;-81
2022/05/14 11:18:07;;;;;;;25.35;5.07;;;19.00;98.90;;;;;;5103731;27;20499;-84
2022/05/14 11:20:34;;;;;;;21.88;5.47;;;19.00;97.80;;;;;;5156769;27;20035;-82
2022/05/14 11:23:09;;;;;;;26.55;5.50;;;19.00;98.50;;;;;;5157808;27;20042;-80
2022/05/14 11:25:35;;;;;;;19.08;5.45;;;18.90;98.30;;;;;;5151526;27;20039;-80
2022/05/14 11:28:13;;;;;;;23.33;6.07;;;18.80;98.50;;;;;;5139431;27;20050;-81
2022/05/14 11:30:51;;;;;;;24.65;6.68;;;18.70;99.00;;;;;;5132058;27;20043;-80
2022/05/14 11:33:37;;;;;;;26.63;6.30;;;18.70;99.90;;;;;;5120379;27;20065;-82
2022/05/14 11:36:12;;;;;;;24.85;6.25;;;18.70;99.90;;;;;;5139093;27;20062;-82
2022/05/14 11:38:45;;;;;;;23.52;5.32;;;18.70;99.90;;;;;;5125294;27;20121;-82
2022/05/14 11:41:35;;;;;;;23.65;4.90;;;18.70;99.90;;;;;;5117669;27;20043;-80
2022/05/14 11:44:02;;;;;;;21.02;7.38;;;18.70;99.20;;;;;;5118481;27;20050;-82
2022/05/14 11:46:35;;;;;;;36.08;6.47;;;18.70;98.40;;;;;;5118257;27;20047;-81
2022/05/14 11:49:10;;;;;;;27.67;6.20;;;18.70;99.70;;;;;;5117425;27;20118;-81
2022/05/14 11:52:07;;;;;;;28.38;5.15;;;18.80;99.90;;;;;;5118251;27;20524;-81
2022/05/14 11:55:10;;;;;;;22.77;4.88;;;19.00;99.90;;;;;;5113547;28;20104;-81
2022/05/14 11:58:08;;;;;;;19.67;5.05;;;19.10;99.90;;;;;;5114637;28;20545;-81
2022/05/14 12:00:34;;;;;;;19.92;5.88;;;19.10;98.70;;;;;;5094545;28;20058;-80
2022/05/14 12:03:13;;;;;;;28.17;5.72;;;19.00;99.30;;;;;;5114889;28;20047;-81
2022/05/14 12:05:50;;;;;;;18.65;4.55;;;19.00;99.90;;;;;;5114385;28;20044;-81
2022/05/14 12:08:28;;;;;;;29.42;5.85;;;19.00;97.20;;;;;;5115768;28;20043;-80
2022/05/14 12:11:12;;;;;;;22.85;4.93;;;19.10;98.80;;;;;;5113967;28;20043;-80
2022/05/14 12:13:57;;;;;;;25.08;5.78;;;19.20;98.80;;;;;;5115644;28;20040;-82
2022/05/14 12:16:33;;;;;;;29.27;5.95;;;19.40;98.90;;;;;;5113325;28;20490;-81
2022/05/14 12:19:05;;;;;;;29.52;5.25;;;19.60;99.60;;;;;;5114312;28;20054;-83
2022/05/14 12:21:32;;;;;;;19.35;4.93;;;19.60;97.80;;;;;;5115551;27;20124;-81
2022/05/14 12:23:58;;;;;;;23.45;5.88;;;19.70;98.20;;;;;;5112650;28;20075;-82
2022/05/14 12:26:26;;;;;;;22.77;5.47;;;19.80;97.20;;;;;;5115299;28;20131;-82
2022/05/14 12:28:58;;;;;;;27.08;5.80;;;19.90;98.90;;;;;;5115256;28;20076;-83
2022/05/14 12:34:20;;;;;;;29.05;5.65;;;20.10;97.10;;;;;;5115139;28;20185;-81
2022/05/14 12:36:53;;;;;;;19.00;5.32;;;20.20;97.60;;;;;;5114249;28;20079;-82
2022/05/14 12:39:22;;;;;;;17.95;5.18;;;20.30;97.50;;;;;;5113964;28;20048;-82
2022/05/14 12:41:52;;;;;;;17.95;4.57;;;20.50;98.50;;;;;;5113812;28;20177;-81
2022/05/14 12:44:31;;;;;;;26.88;6.00;;;20.60;95.60;;;;;;5096269;28;20043;-81
2022/05/14 12:46:59;;;;;;;24.02;5.35;;;20.70;97.20;;;;;;5113951;28;20126;-81
2022/05/14 12:49:28;;;;;;;23.88;5.60;;;20.50;92.60;;;;;;5113622;28;20495;-81
2022/05/14 12:52:04;;;;;;;17.23;4.22;;;20.20;90.70;;;;;;5114049;28;20032;-82
2022/05/14 12:54:35;;;;;;;24.77;5.38;;;20.00;88.90;;;;;;5113231;28;20132;-82
2022/05/14 12:57:09;;;;;;;19.30;4.38;;;19.90;93.00;;;;;;5096640;28;20079;-81
2022/05/14 12:59:36;;;;;;;22.40;4.72;;;19.70;91.60;;;;;;5112538;28;20521;-80
2022/05/14 13:02:07;;;;;;;24.77;5.25;;;19.50;92.20;;;;;;5113446;28;20048;-81
2022/05/14 13:04:41;;;;;;;21.48;4.95;;;19.40;94.30;;;;;;5114469;28;20043;-80
2022/05/14 13:07:10;;;;;;;19.08;6.30;;;19.40;95.60;;;;;;5112624;28;20075;-80
2022/05/14 13:09:36;;;;;;;28.02;6.32;;;19.40;93.50;;;;;;5113469;28;20394;-81
2022/05/14 13:12:03;;;;;;;24.52;4.78;;;19.40;94.20;;;;;;5112420;28;20047;-81
2022/05/14 13:14:33;;;;;;;24.42;5.32;;;19.50;96.90;;;;;;5114262;28;20136;-81
2022/05/14 13:17:06;;;;;;;30.90;5.80;;;19.70;96.20;;;;;;5113288;28;20513;-80